sensor_id;sensor_type;location;lat;lon;timestamp;pressure;altitude;pressure_sealevel;temperature;humidity
43436;BME280;36399;51.444;-2.018;2023-04-02T00:08:36;101089.19;;;6.95;100.00
43436;BME280;36399;51.444;-2.018;2023-04-02T00:16:23;101109.09;;;6.92;100.00
43436;BME280;36399;51.444;-2.018;2023-04-02T00:27:10;101104.81;;;6.94;100.00
43436;BME280;36399;51.444;-2.018;2023-04-02T00:43:17;101126.75;;;6.99;100.00
43436;BME280;36399;51.444;-2.018;2023-04-02T01:25:11;101179.56;;;6.92;100.00
43436;BME280;36399;51.444;-2.018;2023-04-02T01:38:13;101199.53;;;6.91;100.00
43436;BME280;36399;51.444;-2.018;2023-04-02T01:45:58;101195.28;;;6.93;100.00
43436;BME280;36399;51.444;-2.018;2023-04-02T01:59:19;101216.16;;;6.93;100.00
43436;BME280;36399;51.444;-2.018;2023-04-02T02:09:37;101221.38;;;6.93;100.00
43436;BME280;36399;51.444;-2.018;2023-04-02T02:17:30;101229.22;;;6.93;100.00
43436;BME280;36399;51.444;-2.018;2023-04-02T02:30:41;101251.56;;;6.87;100.00
43436;BME280;36399;51.444;-2.018;2023-04-02T02:33:25;101255.78;;;6.83;100.00
43436;BME280;36399;51.444;-2.018;2023-04-02T02:36:17;101266.22;;;6.83;100.00
43436;BME280;36399;51.444;-2.018;2023-04-02T02:55:07;101310.09;;;6.52;100.00
43436;BME280;36399;51.444;-2.018;2023-04-02T03:22:55;101354.47;;;6.32;100.00
43436;BME280;36399;51.444;-2.018;2023-04-02T03:28:05;101355.44;;;6.35;100.00
43436;BME280;36399;51.444;-2.018;2023-04-02T03:35:42;101367.44;;;6.31;100.00
43436;BME280;36399;51.444;-2.018;2023-04-02T03:38:22;101375.22;;;6.29;100.00
43436;BME280;36399;51.444;-2.018;2023-04-02T03:41:14;101380.41;;;6.29;100.00
43436;BME280;36399;51.444;-2.018;2023-04-02T03:46:37;101389.34;;;6.35;100.00
43436;BME280;36399;51.444;-2.018;2023-04-02T03:49:10;101396.34;;;6.36;100.00
43436;BME280;36399;51.444;-2.018;2023-04-02T03:54:23;101401.56;;;6.36;100.00
43436;BME280;36399;51.444;-2.018;2023-04-02T03:56:50;101403.34;;;6.37;100.00
43436;BME280;36399;51.444;-2.018;2023-04-02T04:02:18;101405.25;;;6.41;100.00
43436;BME280;36399;51.444;-2.018;2023-04-02T04:04:52;101396.59;;;6.42;100.00
43436;BME280;36399;51.444;-2.018;2023-04-02T04:07:30;101410.47;;;6.41;100.00
43436;BME280;36399;51.444;-2.018;2023-04-02T04:10:05;101410.53;;;6.42;100.00
43436;BME280;36399;51.444;-2.018;2023-04-02T04:12:39;101409.09;;;6.49;100.00
43436;BME280;36399;51.444;-2.018;2023-04-02T04:25:38;101415.81;;;6.44;100.00
43436;BME280;36399;51.444;-2.018;2023-04-02T04:28:18;101415.19;;;6.49;100.00
43436;BME280;36399;51.444;-2.018;2023-04-02T04:31:18;101419.19;;;6.41;100.00
43436;BME280;36399;51.444;-2.018;2023-04-02T04:33:51;101420.06;;;6.42;100.00
43436;BME280;36399;51.444;-2.018;2023-04-02T04:41:48;101432.97;;;6.39;100.00
43436;BME280;36399;51.444;-2.018;2023-04-02T04:47:19;101432.84;;;6.36;100.00
43436;BME280;36399;51.444;-2.018;2023-04-02T04:49:52;101437.25;;;6.37;100.00
43436;BME280;36399;51.444;-2.018;2023-04-02T04:52:25;101436.34;;;6.36;100.00
43436;BME280;36399;51.444;-2.018;2023-04-02T04:54:56;101441.63;;;6.38;100.00
43436;BME280;36399;51.444;-2.018;2023-04-02T04:57:35;101451.25;;;6.39;100.00
43436;BME280;36399;51.444;-2.018;2023-04-02T05:02:49;101454.75;;;6.39;100.00
43436;BME280;36399;51.444;-2.018;2023-04-02T05:05:25;101456.53;;;6.40;100.00
43436;BME280;36399;51.444;-2.018;2023-04-02T05:44:11;101531.13;;;6.37;100.00
43436;BME280;36399;51.444;-2.018;2023-04-02T05:47:06;101538.13;;;6.38;100.00
43436;BME280;36399;51.444;-2.018;2023-04-02T05:49:44;101538.00;;;6.35;100.00
43436;BME280;36399;51.444;-2.018;2023-04-02T05:52:26;101540.59;;;6.35;100.00
43436;BME280;36399;51.444;-2.018;2023-04-02T05:55:04;101539.69;;;6.34;100.00
43436;BME280;36399;51.444;-2.018;2023-04-02T05:57:36;101545.00;;;6.36;100.00
43436;BME280;36399;51.444;-2.018;2023-04-02T06:00:07;101550.41;;;6.40;100.00
43436;BME280;36399;51.444;-2.018;2023-04-02T06:02:46;101555.63;;;6.40;100.00
43436;BME280;36399;51.444;-2.018;2023-04-02T06:05:23;101552.13;;;6.40;100.00
43436;BME280;36399;51.444;-2.018;2023-04-02T06:07:56;101550.56;;;6.43;100.00
43436;BME280;36399;51.444;-2.018;2023-04-02T06:10:30;101555.72;;;6.42;100.00
43436;BME280;36399;51.444;-2.018;2023-04-02T06:13:00;101551.59;;;6.47;100.00
43436;BME280;36399;51.444;-2.018;2023-04-02T06:15:32;101551.72;;;6.50;100.00
43436;BME280;36399;51.444;-2.018;2023-04-02T06:18:06;101560.44;;;6.50;100.00
43436;BME280;36399;51.444;-2.018;2023-04-02T06:20:34;101560.38;;;6.49;100.00
43436;BME280;36399;51.444;-2.018;2023-04-02T06:23:06;101560.25;;;6.46;100.00
43436;BME280;36399;51.444;-2.018;2023-04-02T06:25:59;101576.03;;;6.49;100.00
43436;BME280;36399;51.444;-2.018;2023-04-02T06:28:33;101577.06;;;6.52;100.00
43436;BME280;36399;51.444;-2.018;2023-04-02T06:31:07;101587.56;;;6.54;100.00
43436;BME280;36399;51.444;-2.018;2023-04-02T06:33:34;101583.47;;;6.59;100.00
43436;BME280;36399;51.444;-2.018;2023-04-02T06:36:03;101587.56;;;6.54;100.00
43436;BME280;36399;51.444;-2.018;2023-04-02T06:38:30;101586.06;;;6.59;100.00
43436;BME280;36399;51.444;-2.018;2023-04-02T06:40:59;101583.19;;;6.53;100.00
43436;BME280;36399;51.444;-2.018;2023-04-02T06:43:48;101601.28;;;6.50;100.00
43436;BME280;36399;51.444;-2.018;2023-04-02T06:52:44;101623.75;;;6.28;100.00
43436;BME280;36399;51.444;-2.018;2023-04-02T07:06:01;101649.53;;;6.40;100.00
43436;BME280;36399;51.444;-2.018;2023-04-02T07:11:04;101655.94;;;6.47;100.00
43436;BME280;36399;51.444;-2.018;2023-04-02T07:18:45;101673.91;;;6.41;100.00
43436;BME280;36399;51.444;-2.018;2023-04-02T07:21:12;101674.69;;;6.22;100.00
43436;BME280;36399;51.444;-2.018;2023-04-02T07:26:34;101685.31;;;6.09;100.00
43436;BME280;36399;51.444;-2.018;2023-04-02T07:36:48;101707.72;;;6.05;100.00
43436;BME280;36399;51.444;-2.018;2023-04-02T07:39:14;101706.25;;;6.10;100.00
43436;BME280;36399;51.444;-2.018;2023-04-02T07:41:55;101708.94;;;6.12;100.00
43436;BME280;36399;51.444;-2.018;2023-04-02T07:44:22;101714.91;;;6.09;100.00
43436;BME280;36399;51.444;-2.018;2023-04-02T07:46:48;101727.25;;;6.13;100.00
43436;BME280;36399;51.444;-2.018;2023-04-02T07:49:14;101731.06;;;6.20;100.00
43436;BME280;36399;51.444;-2.018;2023-04-02T07:51:43;101737.34;;;6.23;100.00
43436;BME280;36399;51.444;-2.018;2023-04-02T07:54:09;101745.97;;;6.39;100.00
43436;BME280;36399;51.444;-2.018;2023-04-02T07:56:36;101742.91;;;6.47;100.00
43436;BME280;36399;51.444;-2.018;2023-04-02T07:59:31;101748.94;;;6.64;100.00
43436;BME280;36399;51.444;-2.018;2023-04-02T08:01:59;101749.78;;;6.63;100.00
43436;BME280;36399;51.444;-2.018;2023-04-02T08:04:34;101750.88;;;6.68;100.00
43436;BME280;36399;51.444;-2.018;2023-04-02T08:07:01;101737.69;;;6.65;100.00
43436;BME280;36399;51.444;-2.018;2023-04-02T08:09:37;101737.09;;;6.71;100.00
43436;BME280;36399;51.444;-2.018;2023-04-02T08:12:04;101744.50;;;6.79;100.00
43436;BME280;36399;51.444;-2.018;2023-04-02T08:17:06;101741.97;;;6.81;100.00
43436;BME280;36399;51.444;-2.018;2023-04-02T08:19:32;101732.56;;;6.84;100.00
43436;BME280;36399;51.444;-2.018;2023-04-02T08:21:59;101724.06;;;6.88;100.00
43436;BME280;36399;51.444;-2.018;2023-04-02T08:24:33;101729.81;;;6.81;100.00
43436;BME280;36399;51.444;-2.018;2023-04-02T08:26:59;101734.50;;;6.88;100.00
43436;BME280;36399;51.444;-2.018;2023-04-02T08:29:27;101746.59;;;6.86;100.00
43436;BME280;36399;51.444;-2.018;2023-04-02T08:40:19;101753.72;;;6.55;100.00
43436;BME280;36399;51.444;-2.018;2023-04-02T08:50:56;101753.94;;;6.42;100.00
43436;BME280;36399;51.444;-2.018;2023-04-02T09:33:45;101756.03;;;8.16;100.00
43436;BME280;36399;51.444;-2.018;2023-04-02T09:36:37;101768.81;;;8.30;100.00
43436;BME280;36399;51.444;-2.018;2023-04-02T09:41:42;101784.59;;;8.50;100.00
43436;BME280;36399;51.444;-2.018;2023-04-02T09:44:18;101779.28;;;8.49;100.00
43436;BME280;36399;51.444;-2.018;2023-04-02T09:46:50;101778.66;;;8.54;100.00
43436;BME280;36399;51.444;-2.018;2023-04-02T09:49:20;101777.75;;;8.54;100.00
43436;BME280;36399;51.444;-2.018;2023-04-02T09:52:15;101778.53;;;8.32;100.00
43436;BME280;36399;51.444;-2.018;2023-04-02T09:54:51;101791.78;;;8.35;100.00
43436;BME280;36399;51.444;-2.018;2023-04-02T09:57:29;101798.63;;;7.93;100.00
43436;BME280;36399;51.444;-2.018;2023-04-02T10:00:22;101801.41;;;7.78;100.00
43436;BME280;36399;51.444;-2.018;2023-04-02T10:03:18;101819.75;;;7.60;100.00
43436;BME280;36399;51.444;-2.018;2023-04-02T10:05:46;101822.66;;;7.67;100.00
43436;BME280;36399;51.444;-2.018;2023-04-02T10:08:24;101828.38;;;7.77;100.00
43436;BME280;36399;51.444;-2.018;2023-04-02T10:10:59;101837.78;;;7.74;100.00
43436;BME280;36399;51.444;-2.018;2023-04-02T10:13:30;101835.63;;;8.02;100.00
43436;BME280;36399;51.444;-2.018;2023-04-02T10:21:04;101822.91;;;8.69;100.00
43436;BME280;36399;51.444;-2.018;2023-04-02T10:23:31;101823.25;;;9.20;100.00
43436;BME280;36399;51.444;-2.018;2023-04-02T10:26:05;101825.19;;;9.69;100.00
43436;BME280;36399;51.444;-2.018;2023-04-02T10:29:13;101835.16;;;9.12;100.00
43436;BME280;36399;51.444;-2.018;2023-04-02T10:32:03;101828.22;;;8.92;100.00
43436;BME280;36399;51.444;-2.018;2023-04-02T10:37:49;101826.19;;;8.84;100.00
43436;BME280;36399;51.444;-2.018;2023-04-02T10:40:26;101843.81;;;8.89;100.00
43436;BME280;36399;51.444;-2.018;2023-04-02T10:45:48;101844.84;;;9.58;100.00
43436;BME280;36399;51.444;-2.018;2023-04-02T10:48:24;101858.38;;;9.46;100.00
43436;BME280;36399;51.444;-2.018;2023-04-02T10:50:58;101851.06;;;9.60;100.00
43436;BME280;36399;51.444;-2.018;2023-04-02T10:53:45;101863.47;;;9.00;100.00
43436;BME280;36399;51.444;-2.018;2023-04-02T10:56:14;101873.25;;;8.43;100.00
43436;BME280;36399;51.444;-2.018;2023-04-02T10:59:04;101883.53;;;8.20;100.00
43436;BME280;36399;51.444;-2.018;2023-04-02T11:01:33;101878.28;;;8.20;100.00
43436;BME280;36399;51.444;-2.018;2023-04-02T11:04:07;101885.59;;;8.28;100.00
43436;BME280;36399;51.444;-2.018;2023-04-02T11:07:05;101884.69;;;8.27;100.00
43436;BME280;36399;51.444;-2.018;2023-04-02T11:09:32;101877.38;;;8.38;100.00
43436;BME280;36399;51.444;-2.018;2023-04-02T11:12:03;101879.50;;;8.46;100.00
43436;BME280;36399;51.444;-2.018;2023-04-02T11:14:32;101890.47;;;8.20;100.00
43436;BME280;36399;51.444;-2.018;2023-04-02T11:16:59;101896.09;;;8.47;100.00
43436;BME280;36399;51.444;-2.018;2023-04-02T11:19:32;101887.94;;;8.60;100.00
43436;BME280;36399;51.444;-2.018;2023-04-02T11:29:40;101895.09;;;8.06;100.00
43436;BME280;36399;51.444;-2.018;2023-04-02T11:37:41;101907.63;;;8.71;100.00
43436;BME280;36399;51.444;-2.018;2023-04-02T11:42:45;101907.44;;;8.67;100.00
43436;BME280;36399;51.444;-2.018;2023-04-02T11:50:34;101908.44;;;9.31;100.00
43436;BME280;36399;51.444;-2.018;2023-04-02T11:55:39;101911.72;;;9.05;100.00
43436;BME280;36399;51.444;-2.018;2023-04-02T11:58:37;101919.25;;;9.18;100.00
43436;BME280;36399;51.444;-2.018;2023-04-02T12:01:28;101929.50;;;8.52;100.00
43436;BME280;36399;51.444;-2.018;2023-04-02T12:04:29;101924.09;;;8.88;100.00
43436;BME280;36399;51.444;-2.018;2023-04-02T12:12:22;101933.69;;;8.68;100.00
43436;BME280;36399;51.444;-2.018;2023-04-02T12:14:52;101935.69;;;8.54;100.00
43436;BME280;36399;51.444;-2.018;2023-04-02T12:17:33;101944.41;;;8.74;100.00
43436;BME280;36399;51.444;-2.018;2023-04-02T12:20:02;101943.47;;;8.72;100.00
43436;BME280;36399;51.444;-2.018;2023-04-02T12:22:35;101943.47;;;8.72;100.00
43436;BME280;36399;51.444;-2.018;2023-04-02T12:25:06;101951.34;;;8.53;100.00
43436;BME280;36399;51.444;-2.018;2023-04-02T12:27:43;101957.25;;;8.49;100.00
43436;BME280;36399;51.444;-2.018;2023-04-02T12:30:18;101957.66;;;8.58;100.00
43436;BME280;36399;51.444;-2.018;2023-04-02T12:32:45;101948.78;;;9.14;100.00
43436;BME280;36399;51.444;-2.018;2023-04-02T12:35:34;101951.00;;;9.05;100.00
43436;BME280;36399;51.444;-2.018;2023-04-02T12:38:01;101942.00;;;9.40;100.00
43436;BME280;36399;51.444;-2.018;2023-04-02T12:40:27;101949.16;;;9.23;100.00
43436;BME280;36399;51.444;-2.018;2023-04-02T12:42:53;101948.44;;;9.27;100.00
43436;BME280;36399;51.444;-2.018;2023-04-02T12:45:28;101946.28;;;9.59;100.00
43436;BME280;36399;51.444;-2.018;2023-04-02T12:47:56;101946.28;;;9.17;100.00
43436;BME280;36399;51.444;-2.018;2023-04-02T12:50:22;101949.72;;;8.76;100.00
43436;BME280;36399;51.444;-2.018;2023-04-02T12:52:50;101952.16;;;8.91;100.00
43436;BME280;36399;51.444;-2.018;2023-04-02T12:55:23;101942.19;;;8.83;100.00
43436;BME280;36399;51.444;-2.018;2023-04-02T12:57:57;101950.69;;;9.18;100.00
43436;BME280;36399;51.444;-2.018;2023-04-02T13:03:23;101951.78;;;9.23;100.00
43436;BME280;36399;51.444;-2.018;2023-04-02T13:05:51;101955.88;;;9.37;100.00
43436;BME280;36399;51.444;-2.018;2023-04-02T13:08:24;101949.22;;;9.45;100.00
43436;BME280;36399;51.444;-2.018;2023-04-02T13:10:52;101957.84;;;9.22;100.00
43436;BME280;36399;51.444;-2.018;2023-04-02T13:13:24;101955.66;;;9.12;100.00
43436;BME280;36399;51.444;-2.018;2023-04-02T13:16:25;101955.91;;;8.78;100.00
43436;BME280;36399;51.444;-2.018;2023-04-02T13:19:09;101944.34;;;8.92;100.00
43436;BME280;36399;51.444;-2.018;2023-04-02T13:21:35;101944.28;;;8.71;100.00
43436;BME280;36399;51.444;-2.018;2023-04-02T13:24:01;101949.25;;;8.65;100.00
43436;BME280;36399;51.444;-2.018;2023-04-02T13:26:28;101944.97;;;8.87;100.00
43436;BME280;36399;51.444;-2.018;2023-04-02T13:31:23;101951.19;;;8.89;100.00
43436;BME280;36399;51.444;-2.018;2023-04-02T13:33:49;101938.34;;;8.95;100.00
43436;BME280;36399;51.444;-2.018;2023-04-02T13:36:16;101954.91;;;8.74;100.00
43436;BME280;36399;51.444;-2.018;2023-04-02T13:38:42;101940.84;;;9.54;100.00
43436;BME280;36399;51.444;-2.018;2023-04-02T13:41:21;101946.47;;;10.53;100.00
43436;BME280;36399;51.444;-2.018;2023-04-02T13:43:53;101942.81;;;11.22;100.00
43436;BME280;36399;51.444;-2.018;2023-04-02T13:46:23;101942.03;;;12.36;100.00
43436;BME280;36399;51.444;-2.018;2023-04-02T13:48:50;101947.66;;;12.18;100.00
43436;BME280;36399;51.444;-2.018;2023-04-02T13:51:17;101938.19;;;11.42;100.00
43436;BME280;36399;51.444;-2.018;2023-04-02T13:53:55;101946.09;;;11.69;100.00
43436;BME280;36399;51.444;-2.018;2023-04-02T13:56:22;101935.09;;;12.08;100.00
43436;BME280;36399;51.444;-2.018;2023-04-02T13:58:50;101931.19;;;12.25;100.00
43436;BME280;36399;51.444;-2.018;2023-04-02T14:01:17;101937.50;;;12.93;100.00
43436;BME280;36399;51.444;-2.018;2023-04-02T14:03:45;101931.63;;;13.35;100.00
43436;BME280;36399;51.444;-2.018;2023-04-02T14:12:23;101922.25;;;11.63;100.00
43436;BME280;36399;51.444;-2.018;2023-04-02T14:25:43;101904.84;;;11.41;100.00
43436;BME280;36399;51.444;-2.018;2023-04-02T14:28:33;101901.84;;;12.73;100.00
43436;BME280;36399;51.444;-2.018;2023-04-02T14:33:54;101890.63;;;13.86;100.00
43436;BME280;36399;51.444;-2.018;2023-04-02T14:44:24;101917.38;;;11.48;100.00
43436;BME280;36399;51.444;-2.018;2023-04-02T14:46:59;101894.63;;;12.66;100.00
43436;BME280;36399;51.444;-2.018;2023-04-02T14:49:32;101903.59;;;13.40;100.00
43436;BME280;36399;51.444;-2.018;2023-04-02T14:52:13;101871.16;;;15.14;100.00
43436;BME280;36399;51.444;-2.018;2023-04-02T14:54:51;101873.59;;;15.03;100.00
43436;BME280;36399;51.444;-2.018;2023-04-02T14:57:37;101887.25;;;13.94;100.00
43436;BME280;36399;51.444;-2.018;2023-04-02T15:00:26;101903.13;;;11.42;100.00
43436;BME280;36399;51.444;-2.018;2023-04-02T15:03:04;101895.41;;;12.02;100.00
43436;BME280;36399;51.444;-2.018;2023-04-02T15:05:41;101890.22;;;11.76;100.00
43436;BME280;36399;51.444;-2.018;2023-04-02T15:11:03;101891.34;;;13.42;100.00
43436;BME280;36399;51.444;-2.018;2023-04-02T15:13:40;101889.97;;;13.97;100.00
43436;BME280;36399;51.444;-2.018;2023-04-02T15:16:20;101888.84;;;15.69;100.00
43436;BME280;36399;51.444;-2.018;2023-04-02T15:18:58;101882.50;;;17.02;100.00
43436;BME280;36399;51.444;-2.018;2023-04-02T15:24:25;101885.06;;;16.91;100.00
43436;BME280;36399;51.444;-2.018;2023-04-02T15:29:45;101887.88;;;15.11;100.00
43436;BME280;36399;51.444;-2.018;2023-04-02T15:43:30;101892.50;;;16.49;100.00
43436;BME280;36399;51.444;-2.018;2023-04-02T15:46:14;101892.63;;;17.50;100.00
43436;BME280;36399;51.444;-2.018;2023-04-02T15:59:55;101879.63;;;17.82;88.71
43436;BME280;36399;51.444;-2.018;2023-04-02T16:10:23;101887.31;;;14.81;100.00
43436;BME280;36399;51.444;-2.018;2023-04-02T16:12:52;101888.38;;;13.28;100.00
43436;BME280;36399;51.444;-2.018;2023-04-02T16:15:43;101904.91;;;11.69;100.00
43436;BME280;36399;51.444;-2.018;2023-04-02T16:18:19;101906.22;;;11.55;100.00
43436;BME280;36399;51.444;-2.018;2023-04-02T16:20:50;101904.63;;;13.12;100.00
43436;BME280;36399;51.444;-2.018;2023-04-02T16:23:21;101901.78;;;14.55;100.00
43436;BME280;36399;51.444;-2.018;2023-04-02T16:39:50;101916.94;;;14.23;100.00
43436;BME280;36399;51.444;-2.018;2023-04-02T17:00:00;101912.72;;;18.56;84.95
43436;BME280;36399;51.444;-2.018;2023-04-02T17:05:26;101925.00;;;18.23;71.28
43436;BME280;36399;51.444;-2.018;2023-04-02T17:08:07;101926.88;;;16.41;80.35
43436;BME280;36399;51.444;-2.018;2023-04-02T17:16:34;101936.69;;;12.32;100.00
43436;BME280;36399;51.444;-2.018;2023-04-02T17:19:10;101935.38;;;11.36;100.00
43436;BME280;36399;51.444;-2.018;2023-04-02T17:21:38;101937.16;;;10.86;100.00
43436;BME280;36399;51.444;-2.018;2023-04-02T17:26:48;101951.06;;;10.13;100.00
43436;BME280;36399;51.444;-2.018;2023-04-02T17:29:19;101950.69;;;10.25;100.00
43436;BME280;36399;51.444;-2.018;2023-04-02T17:31:47;101955.09;;;11.23;100.00
43436;BME280;36399;51.444;-2.018;2023-04-02T17:34:16;101954.63;;;12.16;100.00
43436;BME280;36399;51.444;-2.018;2023-04-02T17:37:07;101949.88;;;13.27;100.00
43436;BME280;36399;51.444;-2.018;2023-04-02T17:39:43;101956.44;;;13.43;100.00
43436;BME280;36399;51.444;-2.018;2023-04-02T17:42:29;101962.09;;;12.92;100.00
43436;BME280;36399;51.444;-2.018;2023-04-02T17:45:12;101960.38;;;12.94;100.00
43436;BME280;36399;51.444;-2.018;2023-04-02T17:47:47;101962.13;;;13.58;100.00
43436;BME280;36399;51.444;-2.018;2023-04-02T17:53:20;101964.81;;;13.26;100.00
43436;BME280;36399;51.444;-2.018;2023-04-02T18:07:13;101983.28;;;9.66;100.00
43436;BME280;36399;51.444;-2.018;2023-04-02T18:12:55;102000.06;;;9.09;100.00
43436;BME280;36399;51.444;-2.018;2023-04-02T18:23:48;102014.13;;;8.34;100.00
43436;BME280;36399;51.444;-2.018;2023-04-02T18:38:24;102022.25;;;7.51;100.00
43436;BME280;36399;51.444;-2.018;2023-04-02T18:46:48;102035.16;;;7.14;100.00
43436;BME280;36399;51.444;-2.018;2023-04-02T18:51:54;102053.59;;;6.68;100.00
43436;BME280;36399;51.444;-2.018;2023-04-02T18:54:38;102057.50;;;6.60;100.00
43436;BME280;36399;51.444;-2.018;2023-04-02T18:57:14;102057.31;;;6.41;100.00
43436;BME280;36399;51.444;-2.018;2023-04-02T18:59:50;102070.84;;;6.33;100.00
43436;BME280;36399;51.444;-2.018;2023-04-02T19:07:28;102073.38;;;6.17;100.00
43436;BME280;36399;51.444;-2.018;2023-04-02T19:10:05;102064.91;;;6.21;100.00
43436;BME280;36399;51.444;-2.018;2023-04-02T19:12:33;102075.09;;;6.17;100.00
43436;BME280;36399;51.444;-2.018;2023-04-02T19:15:00;102082.91;;;6.17;100.00
43436;BME280;36399;51.444;-2.018;2023-04-02T19:17:40;102081.69;;;6.10;100.00
43436;BME280;36399;51.444;-2.018;2023-04-02T19:25:17;102079.81;;;5.78;100.00
43436;BME280;36399;51.444;-2.018;2023-04-02T19:28:15;102095.88;;;5.56;100.00
43436;BME280;36399;51.444;-2.018;2023-04-02T19:33:55;102102.63;;;5.38;100.00
43436;BME280;36399;51.444;-2.018;2023-04-02T19:36:46;102104.72;;;5.16;100.00
43436;BME280;36399;51.444;-2.018;2023-04-02T19:42:06;102114.63;;;4.93;100.00
43436;BME280;36399;51.444;-2.018;2023-04-02T19:44:41;102111.69;;;4.74;100.00
43436;BME280;36399;51.444;-2.018;2023-04-02T19:47:11;102116.19;;;4.63;100.00
43436;BME280;36399;51.444;-2.018;2023-04-02T19:49:39;102119.72;;;4.51;100.00
43436;BME280;36399;51.444;-2.018;2023-04-02T19:52:05;102121.22;;;4.47;100.00
43436;BME280;36399;51.444;-2.018;2023-04-02T19:54:34;102124.94;;;4.37;100.00
43436;BME280;36399;51.444;-2.018;2023-04-02T19:57:00;102133.53;;;4.36;100.00
43436;BME280;36399;51.444;-2.018;2023-04-02T19:59:26;102127.75;;;4.27;100.00
43436;BME280;36399;51.444;-2.018;2023-04-02T20:01:52;102142.47;;;4.27;100.00
43436;BME280;36399;51.444;-2.018;2023-04-02T20:04:18;102139.38;;;4.19;100.00
43436;BME280;36399;51.444;-2.018;2023-04-02T20:06:44;102146.22;;;4.05;100.00
43436;BME280;36399;51.444;-2.018;2023-04-02T20:09:10;102151.63;;;3.95;100.00
43436;BME280;36399;51.444;-2.018;2023-04-02T20:11:37;102152.94;;;4.02;100.00
43436;BME280;36399;51.444;-2.018;2023-04-02T20:14:03;102155.13;;;3.96;100.00
43436;BME280;36399;51.444;-2.018;2023-04-02T20:16:30;102157.91;;;3.86;100.00
43436;BME280;36399;51.444;-2.018;2023-04-02T20:18:57;102155.72;;;3.78;100.00
43436;BME280;36399;51.444;-2.018;2023-04-02T20:21:23;102161.03;;;4.06;100.00
43436;BME280;36399;51.444;-2.018;2023-04-02T20:23:53;102161.53;;;4.01;100.00
43436;BME280;36399;51.444;-2.018;2023-04-02T20:26:19;102159.81;;;3.88;100.00
43436;BME280;36399;51.444;-2.018;2023-04-02T20:28:47;102163.69;;;3.82;100.00
43436;BME280;36399;51.444;-2.018;2023-04-02T20:31:15;102179.19;;;3.80;100.00
43436;BME280;36399;51.444;-2.018;2023-04-02T20:33:42;102171.50;;;3.82;100.00
43436;BME280;36399;51.444;-2.018;2023-04-02T20:36:11;102173.09;;;3.79;100.00
43436;BME280;36399;51.444;-2.018;2023-04-02T20:38:38;102169.69;;;3.80;100.00
43436;BME280;36399;51.444;-2.018;2023-04-02T20:41:05;102183.06;;;3.73;100.00
43436;BME280;36399;51.444;-2.018;2023-04-02T20:43:33;102180.09;;;3.56;100.00
43436;BME280;36399;51.444;-2.018;2023-04-02T20:46:03;102181.38;;;3.49;100.00
43436;BME280;36399;51.444;-2.018;2023-04-02T20:48:30;102186.63;;;3.37;100.00
43436;BME280;36399;51.444;-2.018;2023-04-02T20:50:58;102176.84;;;3.33;100.00
43436;BME280;36399;51.444;-2.018;2023-04-02T20:53:24;102177.16;;;3.38;100.00
43436;BME280;36399;51.444;-2.018;2023-04-02T20:55:51;102173.16;;;3.43;100.00
43436;BME280;36399;51.444;-2.018;2023-04-02T20:58:17;102184.78;;;3.48;100.00
43436;BME280;36399;51.444;-2.018;2023-04-02T21:00:44;102174.81;;;3.54;100.00
43436;BME280;36399;51.444;-2.018;2023-04-02T21:03:10;102180.84;;;3.66;100.00
43436;BME280;36399;51.444;-2.018;2023-04-02T21:05:46;102179.69;;;3.74;100.00
43436;BME280;36399;51.444;-2.018;2023-04-02T21:08:12;102186.06;;;3.66;100.00
43436;BME280;36399;51.444;-2.018;2023-04-02T21:10:39;102189.59;;;3.55;100.00
43436;BME280;36399;51.444;-2.018;2023-04-02T21:13:05;102186.78;;;3.52;100.00
43436;BME280;36399;51.444;-2.018;2023-04-02T21:15:32;102194.03;;;3.44;100.00
43436;BME280;36399;51.444;-2.018;2023-04-02T21:17:58;102188.38;;;3.50;100.00
43436;BME280;36399;51.444;-2.018;2023-04-02T23:17:18;102238.78;;;1.65;100.00
